الصفحة الرئيسية
METAR-TAF:

METAR-TAF

مطار :

ميندوزا, الأرجنتين

دائرة عرض: 32-50S, خط طول: 068-47W, ارتفاع: 705 متر

مراقبة الطقس الحالي

تاريخ ووقت الإصدار 49 دقيقة قبل الساعة 05:00UTC
ريح 3 عقدة من الجنوب الغربي
درجة الحرارة 5°درجة مئوية
الرطوبة 70%
ضغط 1023 hPa
الرؤية 10 كم أو أكثر
الغيوم لا تقل 1500 م ولا وجود لمزنة ركامية السحاب الأسود

METAR: SAME 220500Z 23003KT CAVOK 05/M00 Q1023

زمن: 02:49 (05:49 UTC)

توقعات

تاريخ ووقت الإصدار 6ساعات و 49 دقيقة قبل الساعة 23:00UTC
التوقعات صالحة من22 الساعة 00 UTC إلى 22 الساعة 24 UTC
ريح 5 عقدة من الغرب/الشمال الغربي
الرؤية 10 كم أو أكثر
غيوم قليلة على ارتفاع 4000 قدم
غيوم متفرقة على ارتفاع 10000 قدم
نظرية الاحتمالات 30% :
مؤقت
من 22 الساعة 11 UTC إلى 22 الساعة 13 UTC
الرؤية: 5000 متر
أصبح
من 22 الساعة 14 UTC إلى 22 الساعة 16 UTC
ريح 8 عقدة من الشمال/الشمال الشرقي

TAF: SAME 212300Z 2200/2224 29005KT 9999 FEW040 SCT100 TX18/2220Z TN01/2211Z PROB30 TEMPO 2211/2213 5000 FUHZ BECMG 2214/2216 02008KT

أرصاد الطقس والتوقعات من أكثر من 4000 مطار (تقارير الطقس للمطار METAR والتنبؤ بالطقس بالمطارTAF).

المحطات المتاحة هي النقط الصفراء والحمراء على الخريطة.

حرك المؤشر فوق النقطة لمعرفة اسم المحطة.

ثم انقر لمعرفة أرصاد وتوقعات الطقس.

لتغيير الخارطة: اضغط على الأزرار الخضراء مع رمز الصليب الأسود للتكبير. على الزر الأخضر مع شرطة للتصغير، أو على الأسهم الخضراء للخرائط المجاورة.


METAR-TAF: